sensor_id;sensor_type;location;lat;lon;timestamp;temperature;humidity
23719;DHT22;43322;52.230;5.702;2023-04-16T00:01:05;9.60;99.90
23719;DHT22;43322;52.230;5.702;2023-04-16T00:03:32;9.50;99.90
23719;DHT22;43322;52.230;5.702;2023-04-16T00:05:59;9.20;99.90
23719;DHT22;43322;52.230;5.702;2023-04-16T00:08:26;8.90;99.90
23719;DHT22;43322;52.230;5.702;2023-04-16T00:10:53;9.10;99.90
23719;DHT22;43322;52.230;5.702;2023-04-16T00:13:21;9.40;99.90
23719;DHT22;43322;52.230;5.702;2023-04-16T00:15:48;9.10;99.90
23719;DHT22;43322;52.230;5.702;2023-04-16T00:18:15;9.80;99.90
23719;DHT22;43322;52.230;5.702;2023-04-16T00:20:42;8.60;99.90
23719;DHT22;43322;52.230;5.702;2023-04-16T00:23:09;9.70;99.90
23719;DHT22;43322;52.230;5.702;2023-04-16T00:25:36;9.10;99.90
23719;DHT22;43322;52.230;5.702;2023-04-16T00:28:04;9.10;99.90
23719;DHT22;43322;52.230;5.702;2023-04-16T00:30:32;9.10;99.90
23719;DHT22;43322;52.230;5.702;2023-04-16T00:33:00;9.80;99.90
23719;DHT22;43322;52.230;5.702;2023-04-16T00:35:27;9.50;99.90
23719;DHT22;43322;52.230;5.702;2023-04-16T00:37:54;8.90;99.90
23719;DHT22;43322;52.230;5.702;2023-04-16T00:40:20;9.20;99.90
23719;DHT22;43322;52.230;5.702;2023-04-16T00:42:47;8.50;99.90
23719;DHT22;43322;52.230;5.702;2023-04-16T00:45:14;9.60;99.90
23719;DHT22;43322;52.230;5.702;2023-04-16T00:47:42;9.90;99.90
23719;DHT22;43322;52.230;5.702;2023-04-16T00:50:10;8.50;99.90
23719;DHT22;43322;52.230;5.702;2023-04-16T00:52:38;8.60;99.90
23719;DHT22;43322;52.230;5.702;2023-04-16T00:55:06;9.40;99.90
23719;DHT22;43322;52.230;5.702;2023-04-16T00:57:37;8.60;99.90
23719;DHT22;43322;52.230;5.702;2023-04-16T01:00:05;8.90;99.90
23719;DHT22;43322;52.230;5.702;2023-04-16T01:02:33;8.60;99.90
23719;DHT22;43322;52.230;5.702;2023-04-16T01:05:02;9.40;99.90
23719;DHT22;43322;52.230;5.702;2023-04-16T01:07:29;9.90;99.90
23719;DHT22;43322;52.230;5.702;2023-04-16T01:09:56;9.90;99.90
23719;DHT22;43322;52.230;5.702;2023-04-16T01:12:23;9.10;99.90
23719;DHT22;43322;52.230;5.702;2023-04-16T01:14:50;9.20;99.90
23719;DHT22;43322;52.230;5.702;2023-04-16T01:17:17;8.70;99.90
23719;DHT22;43322;52.230;5.702;2023-04-16T01:19:43;8.90;99.90
23719;DHT22;43322;52.230;5.702;2023-04-16T01:22:12;9.70;99.90
23719;DHT22;43322;52.230;5.702;2023-04-16T01:24:38;9.90;99.90
23719;DHT22;43322;52.230;5.702;2023-04-16T01:27:05;9.50;99.90
23719;DHT22;43322;52.230;5.702;2023-04-16T01:29:32;8.60;99.90
23719;DHT22;43322;52.230;5.702;2023-04-16T01:31:59;9.50;99.90
23719;DHT22;43322;52.230;5.702;2023-04-16T01:34:26;10.10;99.90
23719;DHT22;43322;52.230;5.702;2023-04-16T01:36:53;8.90;99.90
23719;DHT22;43322;52.230;5.702;2023-04-16T01:39:21;8.80;99.90
23719;DHT22;43322;52.230;5.702;2023-04-16T01:41:48;9.30;99.90
23719;DHT22;43322;52.230;5.702;2023-04-16T01:44:15;10.10;99.90
23719;DHT22;43322;52.230;5.702;2023-04-16T01:46:42;8.70;99.90
23719;DHT22;43322;52.230;5.702;2023-04-16T01:49:09;9.80;99.90
23719;DHT22;43322;52.230;5.702;2023-04-16T01:51:36;9.70;99.90
23719;DHT22;43322;52.230;5.702;2023-04-16T01:54:03;9.00;99.90
23719;DHT22;43322;52.230;5.702;2023-04-16T01:56:31;8.80;99.90
23719;DHT22;43322;52.230;5.702;2023-04-16T01:58:58;10.10;99.90
23719;DHT22;43322;52.230;5.702;2023-04-16T02:01:25;9.50;99.90
23719;DHT22;43322;52.230;5.702;2023-04-16T02:03:52;9.50;99.90
23719;DHT22;43322;52.230;5.702;2023-04-16T02:06:19;8.60;99.90
23719;DHT22;43322;52.230;5.702;2023-04-16T02:08:45;10.00;99.90
23719;DHT22;43322;52.230;5.702;2023-04-16T02:11:12;8.70;99.90
23719;DHT22;43322;52.230;5.702;2023-04-16T02:13:40;9.40;99.90
23719;DHT22;43322;52.230;5.702;2023-04-16T02:16:07;9.20;99.90
23719;DHT22;43322;52.230;5.702;2023-04-16T02:18:34;9.40;99.90
23719;DHT22;43322;52.230;5.702;2023-04-16T02:21:01;8.90;99.90
23719;DHT22;43322;52.230;5.702;2023-04-16T02:23:28;8.40;99.90
23719;DHT22;43322;52.230;5.702;2023-04-16T02:25:54;8.80;99.90
23719;DHT22;43322;52.230;5.702;2023-04-16T02:28:22;8.70;99.90
23719;DHT22;43322;52.230;5.702;2023-04-16T02:30:50;10.00;99.90
23719;DHT22;43322;52.230;5.702;2023-04-16T02:33:17;9.50;99.90
23719;DHT22;43322;52.230;5.702;2023-04-16T02:35:44;8.90;99.90
23719;DHT22;43322;52.230;5.702;2023-04-16T02:38:13;8.20;99.90
23719;DHT22;43322;52.230;5.702;2023-04-16T02:40:40;8.80;99.90
23719;DHT22;43322;52.230;5.702;2023-04-16T02:43:06;8.80;99.90
23719;DHT22;43322;52.230;5.702;2023-04-16T02:45:33;9.40;99.90
23719;DHT22;43322;52.230;5.702;2023-04-16T02:48:02;9.00;99.90
23719;DHT22;43322;52.230;5.702;2023-04-16T02:50:28;8.70;99.90
23719;DHT22;43322;52.230;5.702;2023-04-16T02:52:55;9.10;99.90
23719;DHT22;43322;52.230;5.702;2023-04-16T02:55:22;8.80;99.90
23719;DHT22;43322;52.230;5.702;2023-04-16T02:57:48;8.80;99.90
23719;DHT22;43322;52.230;5.702;2023-04-16T03:00:17;8.80;99.90
23719;DHT22;43322;52.230;5.702;2023-04-16T03:02:44;8.80;99.90
23719;DHT22;43322;52.230;5.702;2023-04-16T03:05:12;8.80;99.90
23719;DHT22;43322;52.230;5.702;2023-04-16T03:07:39;8.80;99.90
23719;DHT22;43322;52.230;5.702;2023-04-16T03:10:07;8.80;99.90
23719;DHT22;43322;52.230;5.702;2023-04-16T03:12:34;8.90;99.90
23719;DHT22;43322;52.230;5.702;2023-04-16T03:15:01;8.90;99.90
23719;DHT22;43322;52.230;5.702;2023-04-16T03:17:28;8.80;99.90
23719;DHT22;43322;52.230;5.702;2023-04-16T03:19:55;8.80;99.90
23719;DHT22;43322;52.230;5.702;2023-04-16T03:22:23;8.80;99.90
23719;DHT22;43322;52.230;5.702;2023-04-16T03:24:50;8.80;99.90
23719;DHT22;43322;52.230;5.702;2023-04-16T03:27:17;8.80;99.90
23719;DHT22;43322;52.230;5.702;2023-04-16T03:29:44;8.80;99.90
23719;DHT22;43322;52.230;5.702;2023-04-16T03:32:11;8.80;99.90
23719;DHT22;43322;52.230;5.702;2023-04-16T03:34:38;8.80;99.90
23719;DHT22;43322;52.230;5.702;2023-04-16T03:37:04;8.70;99.90
23719;DHT22;43322;52.230;5.702;2023-04-16T03:39:33;8.80;99.90
23719;DHT22;43322;52.230;5.702;2023-04-16T03:41:59;8.80;99.90
23719;DHT22;43322;52.230;5.702;2023-04-16T03:44:28;8.80;99.90
23719;DHT22;43322;52.230;5.702;2023-04-16T03:46:54;8.80;99.90
23719;DHT22;43322;52.230;5.702;2023-04-16T03:49:21;8.80;99.90
23719;DHT22;43322;52.230;5.702;2023-04-16T03:51:48;9.30;99.90
23719;DHT22;43322;52.230;5.702;2023-04-16T03:54:15;8.80;99.90
23719;DHT22;43322;52.230;5.702;2023-04-16T03:56:43;8.80;99.90
23719;DHT22;43322;52.230;5.702;2023-04-16T03:59:10;8.80;99.90
23719;DHT22;43322;52.230;5.702;2023-04-16T04:01:37;9.60;99.90
23719;DHT22;43322;52.230;5.702;2023-04-16T04:04:03;8.80;99.90
23719;DHT22;43322;52.230;5.702;2023-04-16T04:06:30;8.80;99.90
23719;DHT22;43322;52.230;5.702;2023-04-16T04:08:57;8.70;99.90
23719;DHT22;43322;52.230;5.702;2023-04-16T04:11:24;8.70;99.90
23719;DHT22;43322;52.230;5.702;2023-04-16T04:13:52;8.70;99.90
23719;DHT22;43322;52.230;5.702;2023-04-16T04:16:19;8.70;99.90
23719;DHT22;43322;52.230;5.702;2023-04-16T04:18:46;8.70;99.90
23719;DHT22;43322;52.230;5.702;2023-04-16T04:21:12;8.70;99.90
23719;DHT22;43322;52.230;5.702;2023-04-16T04:23:39;8.80;99.90
23719;DHT22;43322;52.230;5.702;2023-04-16T04:26:07;8.70;99.90
23719;DHT22;43322;52.230;5.702;2023-04-16T04:28:34;8.70;99.90
23719;DHT22;43322;52.230;5.702;2023-04-16T04:31:02;8.70;99.90
23719;DHT22;43322;52.230;5.702;2023-04-16T04:33:29;8.60;99.90
23719;DHT22;43322;52.230;5.702;2023-04-16T04:35:56;8.70;99.90
23719;DHT22;43322;52.230;5.702;2023-04-16T04:38:22;8.70;99.90
23719;DHT22;43322;52.230;5.702;2023-04-16T04:40:49;8.70;99.90
23719;DHT22;43322;52.230;5.702;2023-04-16T04:43:16;8.70;99.90
23719;DHT22;43322;52.230;5.702;2023-04-16T04:45:43;8.80;99.90
23719;DHT22;43322;52.230;5.702;2023-04-16T04:48:12;9.00;99.90
23719;DHT22;43322;52.230;5.702;2023-04-16T04:50:39;8.70;99.90
23719;DHT22;43322;52.230;5.702;2023-04-16T04:53:06;9.50;99.90
23719;DHT22;43322;52.230;5.702;2023-04-16T04:55:35;9.90;99.90
23719;DHT22;43322;52.230;5.702;2023-04-16T04:58:02;9.40;99.90
23719;DHT22;43322;52.230;5.702;2023-04-16T05:00:30;8.60;99.90
23719;DHT22;43322;52.230;5.702;2023-04-16T05:02:57;9.60;99.90
23719;DHT22;43322;52.230;5.702;2023-04-16T05:05:25;8.60;99.90
23719;DHT22;43322;52.230;5.702;2023-04-16T05:07:52;8.60;99.90
23719;DHT22;43322;52.230;5.702;2023-04-16T05:10:19;9.30;99.90
23719;DHT22;43322;52.230;5.702;2023-04-16T05:12:46;9.60;99.90
23719;DHT22;43322;52.230;5.702;2023-04-16T05:15:13;8.50;99.90
23719;DHT22;43322;52.230;5.702;2023-04-16T05:17:40;9.80;99.90
23719;DHT22;43322;52.230;5.702;2023-04-16T05:20:08;8.50;99.90
23719;DHT22;43322;52.230;5.702;2023-04-16T05:22:36;8.60;99.90
23719;DHT22;43322;52.230;5.702;2023-04-16T05:25:04;9.70;99.90
23719;DHT22;43322;52.230;5.702;2023-04-16T05:27:31;8.60;99.90
23719;DHT22;43322;52.230;5.702;2023-04-16T05:29:57;8.40;99.90
23719;DHT22;43322;52.230;5.702;2023-04-16T05:32:25;9.20;99.90
23719;DHT22;43322;52.230;5.702;2023-04-16T05:34:52;8.60;99.90
23719;DHT22;43322;52.230;5.702;2023-04-16T05:37:19;8.60;99.90
23719;DHT22;43322;52.230;5.702;2023-04-16T05:39:47;8.70;99.90
23719;DHT22;43322;52.230;5.702;2023-04-16T05:42:14;8.70;99.90
23719;DHT22;43322;52.230;5.702;2023-04-16T05:44:41;9.10;99.90
23719;DHT22;43322;52.230;5.702;2023-04-16T05:47:08;9.50;99.90
23719;DHT22;43322;52.230;5.702;2023-04-16T05:49:35;8.60;99.90
23719;DHT22;43322;52.230;5.702;2023-04-16T05:52:02;9.70;99.90
23719;DHT22;43322;52.230;5.702;2023-04-16T05:54:29;8.70;99.90
23719;DHT22;43322;52.230;5.702;2023-04-16T05:56:58;8.70;99.90
23719;DHT22;43322;52.230;5.702;2023-04-16T05:59:26;8.80;99.90
23719;DHT22;43322;52.230;5.702;2023-04-16T06:01:53;8.80;99.90
23719;DHT22;43322;52.230;5.702;2023-04-16T06:04:20;8.80;99.90
23719;DHT22;43322;52.230;5.702;2023-04-16T06:06:47;8.80;99.90
23719;DHT22;43322;52.230;5.702;2023-04-16T06:09:13;10.10;99.90
23719;DHT22;43322;52.230;5.702;2023-04-16T06:11:41;8.80;99.90
23719;DHT22;43322;52.230;5.702;2023-04-16T06:14:09;8.90;99.90
23719;DHT22;43322;52.230;5.702;2023-04-16T06:16:37;9.00;99.90
23719;DHT22;43322;52.230;5.702;2023-04-16T06:19:03;8.90;99.90
23719;DHT22;43322;52.230;5.702;2023-04-16T06:21:30;8.90;99.90
23719;DHT22;43322;52.230;5.702;2023-04-16T06:23:58;8.90;99.90
23719;DHT22;43322;52.230;5.702;2023-04-16T06:26:24;9.00;99.90
23719;DHT22;43322;52.230;5.702;2023-04-16T06:28:51;9.10;99.90
23719;DHT22;43322;52.230;5.702;2023-04-16T06:31:19;9.10;99.90
23719;DHT22;43322;52.230;5.702;2023-04-16T06:33:46;9.10;99.90
23719;DHT22;43322;52.230;5.702;2023-04-16T06:36:13;9.20;99.90
23719;DHT22;43322;52.230;5.702;2023-04-16T06:38:41;9.20;99.90
23719;DHT22;43322;52.230;5.702;2023-04-16T06:41:08;9.20;99.90
23719;DHT22;43322;52.230;5.702;2023-04-16T06:43:34;9.30;99.90
23719;DHT22;43322;52.230;5.702;2023-04-16T06:46:01;10.10;99.90
23719;DHT22;43322;52.230;5.702;2023-04-16T06:48:29;9.20;99.90
23719;DHT22;43322;52.230;5.702;2023-04-16T06:50:56;9.20;99.90
23719;DHT22;43322;52.230;5.702;2023-04-16T06:53:24;9.20;99.90
23719;DHT22;43322;52.230;5.702;2023-04-16T06:55:51;10.20;99.90
23719;DHT22;43322;52.230;5.702;2023-04-16T06:58:18;9.20;99.90
23719;DHT22;43322;52.230;5.702;2023-04-16T07:00:45;9.20;99.90
23719;DHT22;43322;52.230;5.702;2023-04-16T07:03:11;9.20;99.90
23719;DHT22;43322;52.230;5.702;2023-04-16T07:05:40;10.40;99.90
23719;DHT22;43322;52.230;5.702;2023-04-16T07:08:07;8.70;99.90
23719;DHT22;43322;52.230;5.702;2023-04-16T07:10:33;9.80;99.90
23719;DHT22;43322;52.230;5.702;2023-04-16T07:13:00;10.30;99.90
23719;DHT22;43322;52.230;5.702;2023-04-16T07:15:27;9.20;99.90
23719;DHT22;43322;52.230;5.702;2023-04-16T07:17:54;10.30;99.90
23719;DHT22;43322;52.230;5.702;2023-04-16T07:20:21;10.10;99.90
23719;DHT22;43322;52.230;5.702;2023-04-16T07:22:49;9.90;99.90
23719;DHT22;43322;52.230;5.702;2023-04-16T07:25:16;9.20;99.90
23719;DHT22;43322;52.230;5.702;2023-04-16T07:27:43;10.10;99.90
23719;DHT22;43322;52.230;5.702;2023-04-16T07:30:10;10.30;99.90
23719;DHT22;43322;52.230;5.702;2023-04-16T07:32:37;9.30;99.90
23719;DHT22;43322;52.230;5.702;2023-04-16T07:35:04;9.90;99.90
23719;DHT22;43322;52.230;5.702;2023-04-16T07:37:31;9.30;99.90
23719;DHT22;43322;52.230;5.702;2023-04-16T07:40:00;8.80;99.90
23719;DHT22;43322;52.230;5.702;2023-04-16T07:42:27;10.20;99.90
23719;DHT22;43322;52.230;5.702;2023-04-16T07:44:54;10.80;99.90
23719;DHT22;43322;52.230;5.702;2023-04-16T07:47:21;9.70;99.90
23719;DHT22;43322;52.230;5.702;2023-04-16T07:49:50;9.40;99.90
23719;DHT22;43322;52.230;5.702;2023-04-16T07:52:18;10.40;99.90
23719;DHT22;43322;52.230;5.702;2023-04-16T07:54:45;10.90;99.90
23719;DHT22;43322;52.230;5.702;2023-04-16T07:57:13;9.40;99.90
23719;DHT22;43322;52.230;5.702;2023-04-16T07:59:40;10.60;99.90
23719;DHT22;43322;52.230;5.702;2023-04-16T08:02:08;9.40;99.90
23719;DHT22;43322;52.230;5.702;2023-04-16T08:04:38;9.80;99.90
23719;DHT22;43322;52.230;5.702;2023-04-16T08:07:05;10.50;99.90
23719;DHT22;43322;52.230;5.702;2023-04-16T08:09:32;10.90;99.90
23719;DHT22;43322;52.230;5.702;2023-04-16T08:11:59;10.00;99.90
23719;DHT22;43322;52.230;5.702;2023-04-16T08:14:27;10.20;99.90
23719;DHT22;43322;52.230;5.702;2023-04-16T08:16:55;11.10;99.90
23719;DHT22;43322;52.230;5.702;2023-04-16T08:19:22;10.90;99.90
23719;DHT22;43322;52.230;5.702;2023-04-16T08:21:48;10.90;99.90
23719;DHT22;43322;52.230;5.702;2023-04-16T08:24:15;10.10;99.90
23719;DHT22;43322;52.230;5.702;2023-04-16T08:26:42;10.90;99.90
23719;DHT22;43322;52.230;5.702;2023-04-16T08:29:09;9.70;99.90
23719;DHT22;43322;52.230;5.702;2023-04-16T08:31:37;10.90;99.90
23719;DHT22;43322;52.230;5.702;2023-04-16T08:34:04;10.90;99.90
23719;DHT22;43322;52.230;5.702;2023-04-16T08:36:31;11.20;99.90
23719;DHT22;43322;52.230;5.702;2023-04-16T08:38:58;10.70;99.90
23719;DHT22;43322;52.230;5.702;2023-04-16T08:41:25;9.50;99.90
23719;DHT22;43322;52.230;5.702;2023-04-16T08:43:54;10.80;99.90
23719;DHT22;43322;52.230;5.702;2023-04-16T08:46:24;10.80;99.90
23719;DHT22;43322;52.230;5.702;2023-04-16T08:48:53;9.90;99.90
23719;DHT22;43322;52.230;5.702;2023-04-16T08:51:22;10.00;99.90
23719;DHT22;43322;52.230;5.702;2023-04-16T08:53:52;11.10;99.90
23719;DHT22;43322;52.230;5.702;2023-04-16T08:56:22;10.80;99.90
23719;DHT22;43322;52.230;5.702;2023-04-16T08:58:50;11.20;99.90
23719;DHT22;43322;52.230;5.702;2023-04-16T09:01:17;9.90;99.90
23719;DHT22;43322;52.230;5.702;2023-04-16T09:03:46;11.30;99.90
23719;DHT22;43322;52.230;5.702;2023-04-16T09:06:15;10.60;99.90
23719;DHT22;43322;52.230;5.702;2023-04-16T09:08:43;10.40;99.90
23719;DHT22;43322;52.230;5.702;2023-04-16T09:11:12;10.60;99.90
23719;DHT22;43322;52.230;5.702;2023-04-16T09:13:39;11.00;99.90
23719;DHT22;43322;52.230;5.702;2023-04-16T09:16:06;11.20;99.90
23719;DHT22;43322;52.230;5.702;2023-04-16T09:18:34;10.70;99.90
23719;DHT22;43322;52.230;5.702;2023-04-16T09:21:00;11.70;99.90
23719;DHT22;43322;52.230;5.702;2023-04-16T09:23:30;10.80;99.90
23719;DHT22;43322;52.230;5.702;2023-04-16T09:25:58;10.60;99.90
23719;DHT22;43322;52.230;5.702;2023-04-16T09:28:38;10.80;99.90
23719;DHT22;43322;52.230;5.702;2023-04-16T09:31:09;10.80;99.90
23719;DHT22;43322;52.230;5.702;2023-04-16T09:33:36;10.80;99.90
23719;DHT22;43322;52.230;5.702;2023-04-16T09:36:04;11.10;99.90
23719;DHT22;43322;52.230;5.702;2023-04-16T09:38:48;10.80;99.90
23719;DHT22;43322;52.230;5.702;2023-04-16T09:41:15;10.80;99.90
23719;DHT22;43322;52.230;5.702;2023-04-16T09:43:52;10.80;99.90
23719;DHT22;43322;52.230;5.702;2023-04-16T09:46:20;10.90;99.90
23719;DHT22;43322;52.230;5.702;2023-04-16T09:48:47;11.40;99.90
23719;DHT22;43322;52.230;5.702;2023-04-16T09:51:14;10.90;99.90
23719;DHT22;43322;52.230;5.702;2023-04-16T09:53:41;11.60;99.90
23719;DHT22;43322;52.230;5.702;2023-04-16T09:56:11;11.10;99.90
23719;DHT22;43322;52.230;5.702;2023-04-16T09:58:38;11.20;99.90
23719;DHT22;43322;52.230;5.702;2023-04-16T10:01:07;11.20;99.90
23719;DHT22;43322;52.230;5.702;2023-04-16T10:03:36;11.20;99.90
23719;DHT22;43322;52.230;5.702;2023-04-16T10:06:07;11.30;99.90
23719;DHT22;43322;52.230;5.702;2023-04-16T10:08:34;11.30;99.90
23719;DHT22;43322;52.230;5.702;2023-04-16T10:11:01;11.30;99.90
23719;DHT22;43322;52.230;5.702;2023-04-16T10:13:30;11.10;99.90
23719;DHT22;43322;52.230;5.702;2023-04-16T10:15:57;11.20;99.90
23719;DHT22;43322;52.230;5.702;2023-04-16T10:18:24;11.40;99.90
23719;DHT22;43322;52.230;5.702;2023-04-16T10:20:52;11.50;99.90
23719;DHT22;43322;52.230;5.702;2023-04-16T10:23:19;11.60;99.90
23719;DHT22;43322;52.230;5.702;2023-04-16T10:25:47;11.50;99.90
23719;DHT22;43322;52.230;5.702;2023-04-16T10:28:14;11.70;99.90
23719;DHT22;43322;52.230;5.702;2023-04-16T10:30:44;11.70;99.90
23719;DHT22;43322;52.230;5.702;2023-04-16T10:33:19;11.80;99.90
23719;DHT22;43322;52.230;5.702;2023-04-16T10:35:46;11.80;99.90
23719;DHT22;43322;52.230;5.702;2023-04-16T10:38:20;11.90;99.90
23719;DHT22;43322;52.230;5.702;2023-04-16T10:40:48;11.90;99.90
23719;DHT22;43322;52.230;5.702;2023-04-16T10:43:16;11.90;99.90
23719;DHT22;43322;52.230;5.702;2023-04-16T10:45:46;11.80;99.90
23719;DHT22;43322;52.230;5.702;2023-04-16T10:48:14;12.80;99.90
23719;DHT22;43322;52.230;5.702;2023-04-16T10:50:53;12.20;99.90
23719;DHT22;43322;52.230;5.702;2023-04-16T10:53:23;12.20;99.90
23719;DHT22;43322;52.230;5.702;2023-04-16T10:55:57;12.50;99.90
23719;DHT22;43322;52.230;5.702;2023-04-16T10:58:27;12.90;99.90
23719;DHT22;43322;52.230;5.702;2023-04-16T11:00:58;13.60;99.90
23719;DHT22;43322;52.230;5.702;2023-04-16T11:03:25;12.20;99.90
23719;DHT22;43322;52.230;5.702;2023-04-16T11:06:09;12.30;99.90
23719;DHT22;43322;52.230;5.702;2023-04-16T11:08:37;12.30;99.90
23719;DHT22;43322;52.230;5.702;2023-04-16T11:11:04;12.80;99.90
23719;DHT22;43322;52.230;5.702;2023-04-16T11:13:31;13.10;99.90
23719;DHT22;43322;52.230;5.702;2023-04-16T11:16:00;12.30;99.90
23719;DHT22;43322;52.230;5.702;2023-04-16T11:18:27;12.30;99.90
23719;DHT22;43322;52.230;5.702;2023-04-16T11:20:54;12.80;99.90
23719;DHT22;43322;52.230;5.702;2023-04-16T11:23:21;12.30;99.90
23719;DHT22;43322;52.230;5.702;2023-04-16T11:25:48;13.20;99.90
23719;DHT22;43322;52.230;5.702;2023-04-16T11:28:20;12.80;99.90
23719;DHT22;43322;52.230;5.702;2023-04-16T11:30:47;12.60;99.90
23719;DHT22;43322;52.230;5.702;2023-04-16T11:33:15;13.80;99.90
23719;DHT22;43322;52.230;5.702;2023-04-16T11:35:42;13.60;99.90
23719;DHT22;43322;52.230;5.702;2023-04-16T11:38:10;12.50;99.90
23719;DHT22;43322;52.230;5.702;2023-04-16T11:40:37;12.70;99.90
23719;DHT22;43322;52.230;5.702;2023-04-16T11:43:12;13.50;99.90
23719;DHT22;43322;52.230;5.702;2023-04-16T11:45:40;12.40;99.90
23719;DHT22;43322;52.230;5.702;2023-04-16T11:48:20;12.20;99.90
23719;DHT22;43322;52.230;5.702;2023-04-16T11:50:54;12.00;99.90
23719;DHT22;43322;52.230;5.702;2023-04-16T11:53:21;12.20;99.90
23719;DHT22;43322;52.230;5.702;2023-04-16T11:55:48;13.30;99.90
23719;DHT22;43322;52.230;5.702;2023-04-16T11:58:15;12.20;99.90
23719;DHT22;43322;52.230;5.702;2023-04-16T12:00:41;12.20;99.90
23719;DHT22;43322;52.230;5.702;2023-04-16T12:03:09;12.20;99.90
23719;DHT22;43322;52.230;5.702;2023-04-16T12:05:38;12.90;99.90
23719;DHT22;43322;52.230;5.702;2023-04-16T12:08:07;12.00;99.90
23719;DHT22;43322;52.230;5.702;2023-04-16T12:10:35;12.10;99.90
23719;DHT22;43322;52.230;5.702;2023-04-16T12:13:12;12.10;99.90
23719;DHT22;43322;52.230;5.702;2023-04-16T12:15:43;12.10;99.90
23719;DHT22;43322;52.230;5.702;2023-04-16T12:18:11;12.90;99.90
23719;DHT22;43322;52.230;5.702;2023-04-16T12:20:40;12.20;99.90
23719;DHT22;43322;52.230;5.702;2023-04-16T12:23:07;12.00;99.90
23719;DHT22;43322;52.230;5.702;2023-04-16T12:25:34;11.90;99.90
23719;DHT22;43322;52.230;5.702;2023-04-16T12:28:01;11.80;99.90
23719;DHT22;43322;52.230;5.702;2023-04-16T12:30:29;12.10;99.90
23719;DHT22;43322;52.230;5.702;2023-04-16T12:33:13;11.70;99.90
23719;DHT22;43322;52.230;5.702;2023-04-16T12:35:42;11.70;99.90
23719;DHT22;43322;52.230;5.702;2023-04-16T12:38:10;11.70;99.90
23719;DHT22;43322;52.230;5.702;2023-04-16T12:40:38;11.70;99.90
23719;DHT22;43322;52.230;5.702;2023-04-16T12:43:05;11.70;99.90
23719;DHT22;43322;52.230;5.702;2023-04-16T12:45:32;11.70;99.90
23719;DHT22;43322;52.230;5.702;2023-04-16T12:48:00;12.30;99.90
23719;DHT22;43322;52.230;5.702;2023-04-16T12:50:27;11.70;99.90
23719;DHT22;43322;52.230;5.702;2023-04-16T12:52:56;11.70;99.90
23719;DHT22;43322;52.230;5.702;2023-04-16T12:55:23;11.60;99.90
23719;DHT22;43322;52.230;5.702;2023-04-16T12:57:50;11.60;99.90
23719;DHT22;43322;52.230;5.702;2023-04-16T13:00:18;11.70;99.90
23719;DHT22;43322;52.230;5.702;2023-04-16T13:02:45;11.60;99.90
23719;DHT22;43322;52.230;5.702;2023-04-16T13:05:12;11.70;99.90
23719;DHT22;43322;52.230;5.702;2023-04-16T13:07:41;11.70;99.90
23719;DHT22;43322;52.230;5.702;2023-04-16T13:10:10;11.80;99.90
23719;DHT22;43322;52.230;5.702;2023-04-16T13:12:38;11.80;99.90
23719;DHT22;43322;52.230;5.702;2023-04-16T13:15:05;11.80;99.90
23719;DHT22;43322;52.230;5.702;2023-04-16T13:17:32;11.70;99.90
23719;DHT22;43322;52.230;5.702;2023-04-16T13:19:59;11.70;99.90
23719;DHT22;43322;52.230;5.702;2023-04-16T13:22:26;11.70;99.90
23719;DHT22;43322;52.230;5.702;2023-04-16T13:24:52;11.70;99.90
23719;DHT22;43322;52.230;5.702;2023-04-16T13:27:21;11.80;99.90
23719;DHT22;43322;52.230;5.702;2023-04-16T13:29:47;12.70;99.90
23719;DHT22;43322;52.230;5.702;2023-04-16T13:32:14;12.00;99.90
23719;DHT22;43322;52.230;5.702;2023-04-16T13:34:43;12.40;99.90
23719;DHT22;43322;52.230;5.702;2023-04-16T13:37:10;12.30;99.90
23719;DHT22;43322;52.230;5.702;2023-04-16T13:39:36;11.70;99.90
23719;DHT22;43322;52.230;5.702;2023-04-16T13:42:03;12.90;99.90
23719;DHT22;43322;52.230;5.702;2023-04-16T13:44:32;11.90;99.90
23719;DHT22;43322;52.230;5.702;2023-04-16T13:46:58;12.00;99.90
23719;DHT22;43322;52.230;5.702;2023-04-16T13:49:25;12.10;99.90
23719;DHT22;43322;52.230;5.702;2023-04-16T13:51:52;12.00;99.90
23719;DHT22;43322;52.230;5.702;2023-04-16T13:54:19;12.70;99.90
23719;DHT22;43322;52.230;5.702;2023-04-16T13:56:46;12.20;99.90
23719;DHT22;43322;52.230;5.702;2023-04-16T13:59:13;12.60;99.90
23719;DHT22;43322;52.230;5.702;2023-04-16T14:01:42;13.50;99.90
23719;DHT22;43322;52.230;5.702;2023-04-16T14:04:09;12.60;99.90
23719;DHT22;43322;52.230;5.702;2023-04-16T14:06:36;12.40;99.90
23719;DHT22;43322;52.230;5.702;2023-04-16T14:09:03;13.40;99.90
23719;DHT22;43322;52.230;5.702;2023-04-16T14:11:30;13.40;99.90
23719;DHT22;43322;52.230;5.702;2023-04-16T14:13:57;13.60;99.90
23719;DHT22;43322;52.230;5.702;2023-04-16T14:16:25;12.90;99.90
23719;DHT22;43322;52.230;5.702;2023-04-16T14:18:53;12.70;99.90
23719;DHT22;43322;52.230;5.702;2023-04-16T14:21:20;12.10;99.90
23719;DHT22;43322;52.230;5.702;2023-04-16T14:23:47;13.30;99.90
23719;DHT22;43322;52.230;5.702;2023-04-16T14:26:14;12.40;99.90
23719;DHT22;43322;52.230;5.702;2023-04-16T14:28:42;12.90;99.90
23719;DHT22;43322;52.230;5.702;2023-04-16T14:31:09;12.90;99.90
23719;DHT22;43322;52.230;5.702;2023-04-16T14:33:35;12.60;99.90
23719;DHT22;43322;52.230;5.702;2023-04-16T14:36:04;12.50;99.90
23719;DHT22;43322;52.230;5.702;2023-04-16T14:38:31;12.50;99.90
23719;DHT22;43322;52.230;5.702;2023-04-16T14:40:58;12.60;99.90
23719;DHT22;43322;52.230;5.702;2023-04-16T14:43:25;12.90;99.90
23719;DHT22;43322;52.230;5.702;2023-04-16T14:45:52;13.10;99.90
23719;DHT22;43322;52.230;5.702;2023-04-16T14:48:19;12.80;99.90
23719;DHT22;43322;52.230;5.702;2023-04-16T14:50:46;12.90;99.90
23719;DHT22;43322;52.230;5.702;2023-04-16T14:53:14;13.00;99.90
23719;DHT22;43322;52.230;5.702;2023-04-16T14:55:41;14.10;99.90
23719;DHT22;43322;52.230;5.702;2023-04-16T14:58:08;12.80;99.90
23719;DHT22;43322;52.230;5.702;2023-04-16T15:00:36;13.20;99.90
23719;DHT22;43322;52.230;5.702;2023-04-16T15:03:03;12.80;99.90
23719;DHT22;43322;52.230;5.702;2023-04-16T15:05:30;12.70;99.90
23719;DHT22;43322;52.230;5.702;2023-04-16T15:07:58;13.60;99.90
23719;DHT22;43322;52.230;5.702;2023-04-16T15:10:26;12.90;99.90
23719;DHT22;43322;52.230;5.702;2023-04-16T15:12:53;12.50;99.90
23719;DHT22;43322;52.230;5.702;2023-04-16T15:15:20;12.20;99.90
23719;DHT22;43322;52.230;5.702;2023-04-16T15:17:46;12.20;99.90
23719;DHT22;43322;52.230;5.702;2023-04-16T15:20:15;12.20;99.90
23719;DHT22;43322;52.230;5.702;2023-04-16T15:22:42;12.20;99.90
23719;DHT22;43322;52.230;5.702;2023-04-16T15:25:08;12.20;99.90
23719;DHT22;43322;52.230;5.702;2023-04-16T15:27:37;12.20;99.90
23719;DHT22;43322;52.230;5.702;2023-04-16T15:30:05;12.20;99.90
23719;DHT22;43322;52.230;5.702;2023-04-16T15:32:32;12.20;99.90
23719;DHT22;43322;52.230;5.702;2023-04-16T15:35:00;12.00;99.90
23719;DHT22;43322;52.230;5.702;2023-04-16T15:37:27;12.00;99.90
23719;DHT22;43322;52.230;5.702;2023-04-16T15:39:54;11.80;99.90